sensor_id;sensor_type;location;lat;lon;timestamp;temperature;humidity
51739;DHT22;37815;52.692;6.226;2024-01-10T00:00:41;3.50;97.30
51739;DHT22;37815;52.692;6.226;2024-01-10T00:05:42;3.50;97.30
51739;DHT22;37815;52.692;6.226;2024-01-10T00:10:43;3.50;97.30
51739;DHT22;37815;52.692;6.226;2024-01-10T00:15:43;3.50;97.30
51739;DHT22;37815;52.692;6.226;2024-01-10T00:20:44;3.50;97.30
51739;DHT22;37815;52.692;6.226;2024-01-10T00:25:44;3.50;97.60
51739;DHT22;37815;52.692;6.226;2024-01-10T00:30:46;3.50;97.30
51739;DHT22;37815;52.692;6.226;2024-01-10T00:35:48;3.50;97.30
51739;DHT22;37815;52.692;6.226;2024-01-10T00:40:49;3.50;97.30
51739;DHT22;37815;52.692;6.226;2024-01-10T00:45:49;3.50;97.30
51739;DHT22;37815;52.692;6.226;2024-01-10T00:50:50;3.40;97.30
51739;DHT22;37815;52.692;6.226;2024-01-10T00:55:50;3.50;97.30
51739;DHT22;37815;52.692;6.226;2024-01-10T01:00:51;3.40;97.30
51739;DHT22;37815;52.692;6.226;2024-01-10T01:05:51;3.40;97.50
51739;DHT22;37815;52.692;6.226;2024-01-10T01:10:52;3.40;97.30
51739;DHT22;37815;52.692;6.226;2024-01-10T01:15:52;3.40;97.30
51739;DHT22;37815;52.692;6.226;2024-01-10T01:20:53;3.40;97.30
51739;DHT22;37815;52.692;6.226;2024-01-10T01:25:54;3.40;97.30
51739;DHT22;37815;52.692;6.226;2024-01-10T01:30:54;3.40;97.30
51739;DHT22;37815;52.692;6.226;2024-01-10T01:35:55;3.40;97.30
51739;DHT22;37815;52.692;6.226;2024-01-10T01:40:55;3.40;97.30
51739;DHT22;37815;52.692;6.226;2024-01-10T01:45:56;3.40;97.30
51739;DHT22;37815;52.692;6.226;2024-01-10T01:51:01;3.40;97.30
51739;DHT22;37815;52.692;6.226;2024-01-10T01:56:06;3.40;97.30
51739;DHT22;37815;52.692;6.226;2024-01-10T02:01:07;3.40;97.30
51739;DHT22;37815;52.692;6.226;2024-01-10T02:06:07;3.40;97.30
51739;DHT22;37815;52.692;6.226;2024-01-10T02:11:08;3.40;97.30
51739;DHT22;37815;52.692;6.226;2024-01-10T02:16:09;3.40;97.30
51739;DHT22;37815;52.692;6.226;2024-01-10T02:21:10;3.40;97.30
51739;DHT22;37815;52.692;6.226;2024-01-10T02:26:10;3.40;97.30
51739;DHT22;37815;52.692;6.226;2024-01-10T02:31:11;3.40;97.30
51739;DHT22;37815;52.692;6.226;2024-01-10T02:36:11;3.30;97.20
51739;DHT22;37815;52.692;6.226;2024-01-10T02:41:12;3.30;97.20
51739;DHT22;37815;52.692;6.226;2024-01-10T02:46:13;3.30;97.20
51739;DHT22;37815;52.692;6.226;2024-01-10T02:51:13;3.30;97.20
51739;DHT22;37815;52.692;6.226;2024-01-10T02:56:14;3.30;97.20
51739;DHT22;37815;52.692;6.226;2024-01-10T03:01:14;3.30;97.20
51739;DHT22;37815;52.692;6.226;2024-01-10T03:06:15;3.30;97.20
51739;DHT22;37815;52.692;6.226;2024-01-10T03:11:16;3.30;97.20
51739;DHT22;37815;52.692;6.226;2024-01-10T03:16:16;3.30;97.20
51739;DHT22;37815;52.692;6.226;2024-01-10T03:21:17;3.30;97.20
51739;DHT22;37815;52.692;6.226;2024-01-10T03:26:25;3.30;97.20
51739;DHT22;37815;52.692;6.226;2024-01-10T03:31:29;3.30;97.20
51739;DHT22;37815;52.692;6.226;2024-01-10T03:36:30;3.30;97.20
51739;DHT22;37815;52.692;6.226;2024-01-10T03:41:31;3.20;97.20
51739;DHT22;37815;52.692;6.226;2024-01-10T03:46:33;3.30;97.20
51739;DHT22;37815;52.692;6.226;2024-01-10T03:51:34;3.30;97.20
51739;DHT22;37815;52.692;6.226;2024-01-10T03:56:34;3.20;97.20
51739;DHT22;37815;52.692;6.226;2024-01-10T04:01:35;3.20;97.20
51739;DHT22;37815;52.692;6.226;2024-01-10T04:06:39;3.20;97.20
51739;DHT22;37815;52.692;6.226;2024-01-10T04:11:39;3.20;97.20
51739;DHT22;37815;52.692;6.226;2024-01-10T04:16:40;3.20;97.20
51739;DHT22;37815;52.692;6.226;2024-01-10T04:21:41;3.20;97.10
51739;DHT22;37815;52.692;6.226;2024-01-10T04:26:41;3.20;97.20
51739;DHT22;37815;52.692;6.226;2024-01-10T04:31:42;3.20;97.10
51739;DHT22;37815;52.692;6.226;2024-01-10T04:36:43;3.20;97.10
51739;DHT22;37815;52.692;6.226;2024-01-10T04:41:43;3.20;97.40
51739;DHT22;37815;52.692;6.226;2024-01-10T04:46:44;3.20;97.10
51739;DHT22;37815;52.692;6.226;2024-01-10T04:51:44;3.20;96.90
51739;DHT22;37815;52.692;6.226;2024-01-10T04:56:45;3.20;97.10
51739;DHT22;37815;52.692;6.226;2024-01-10T05:01:47;3.20;97.10
51739;DHT22;37815;52.692;6.226;2024-01-10T05:06:48;3.10;97.10
51739;DHT22;37815;52.692;6.226;2024-01-10T05:11:48;3.20;97.20
51739;DHT22;37815;52.692;6.226;2024-01-10T05:16:51;3.10;97.10
51739;DHT22;37815;52.692;6.226;2024-01-10T05:21:53;3.10;97.10
51739;DHT22;37815;52.692;6.226;2024-01-10T05:26:55;3.10;97.10
51739;DHT22;37815;52.692;6.226;2024-01-10T05:31:55;3.10;97.10
51739;DHT22;37815;52.692;6.226;2024-01-10T05:36:56;3.10;97.10
51739;DHT22;37815;52.692;6.226;2024-01-10T05:41:56;3.10;97.10
51739;DHT22;37815;52.692;6.226;2024-01-10T05:46:57;3.10;97.10
51739;DHT22;37815;52.692;6.226;2024-01-10T05:52:00;3.10;97.10
51739;DHT22;37815;52.692;6.226;2024-01-10T05:57:02;3.10;97.10
51739;DHT22;37815;52.692;6.226;2024-01-10T06:02:04;3.10;97.10
51739;DHT22;37815;52.692;6.226;2024-01-10T06:07:05;3.10;97.10
51739;DHT22;37815;52.692;6.226;2024-01-10T06:12:06;3.10;97.00
51739;DHT22;37815;52.692;6.226;2024-01-10T06:17:07;3.10;97.00
51739;DHT22;37815;52.692;6.226;2024-01-10T06:27:09;3.10;96.80
51739;DHT22;37815;52.692;6.226;2024-01-10T06:32:11;3.10;97.10
51739;DHT22;37815;52.692;6.226;2024-01-10T06:37:11;3.10;97.10
51739;DHT22;37815;52.692;6.226;2024-01-10T06:42:12;3.00;97.00
51739;DHT22;37815;52.692;6.226;2024-01-10T06:47:12;3.00;97.00
51739;DHT22;37815;52.692;6.226;2024-01-10T06:52:14;3.00;97.00
51739;DHT22;37815;52.692;6.226;2024-01-10T06:57:16;3.00;97.00
51739;DHT22;37815;52.692;6.226;2024-01-10T07:02:17;3.00;97.00
51739;DHT22;37815;52.692;6.226;2024-01-10T07:07:18;3.00;97.00
51739;DHT22;37815;52.692;6.226;2024-01-10T07:12:19;3.00;97.00
51739;DHT22;37815;52.692;6.226;2024-01-10T07:17:20;3.00;97.00
51739;DHT22;37815;52.692;6.226;2024-01-10T07:22:23;3.00;97.00
51739;DHT22;37815;52.692;6.226;2024-01-10T07:27:23;3.00;97.00
51739;DHT22;37815;52.692;6.226;2024-01-10T07:32:24;3.00;97.00
51739;DHT22;37815;52.692;6.226;2024-01-10T07:37:25;3.00;97.00
51739;DHT22;37815;52.692;6.226;2024-01-10T07:42:26;3.00;97.00
51739;DHT22;37815;52.692;6.226;2024-01-10T07:47:27;3.00;97.00
51739;DHT22;37815;52.692;6.226;2024-01-10T07:52:27;3.00;97.00
51739;DHT22;37815;52.692;6.226;2024-01-10T07:57:28;3.00;97.00
51739;DHT22;37815;52.692;6.226;2024-01-10T08:02:29;3.00;97.00
51739;DHT22;37815;52.692;6.226;2024-01-10T08:07:34;3.00;97.00
51739;DHT22;37815;52.692;6.226;2024-01-10T08:12:37;3.00;97.00
51739;DHT22;37815;52.692;6.226;2024-01-10T08:17:41;3.00;97.00
51739;DHT22;37815;52.692;6.226;2024-01-10T08:22:43;4.30;97.30
51739;DHT22;37815;52.692;6.226;2024-01-10T08:27:45;4.30;97.40
51739;DHT22;37815;52.692;6.226;2024-01-10T08:32:45;4.80;97.40
51739;DHT22;37815;52.692;6.226;2024-01-10T08:37:47;4.50;97.40
51739;DHT22;37815;52.692;6.226;2024-01-10T08:42:47;3.00;97.00
51739;DHT22;37815;52.692;6.226;2024-01-10T08:47:48;3.00;97.00
51739;DHT22;37815;52.692;6.226;2024-01-10T08:52:49;3.00;96.90
51739;DHT22;37815;52.692;6.226;2024-01-10T08:57:51;3.60;97.40
51739;DHT22;37815;52.692;6.226;2024-01-10T09:02:55;3.00;96.90
51739;DHT22;37815;52.692;6.226;2024-01-10T09:07:55;3.10;96.90
51739;DHT22;37815;52.692;6.226;2024-01-10T09:12:58;3.10;96.90
51739;DHT22;37815;52.692;6.226;2024-01-10T09:17:59;3.10;96.90
51739;DHT22;37815;52.692;6.226;2024-01-10T09:23:00;3.20;97.00
51739;DHT22;37815;52.692;6.226;2024-01-10T09:28:01;3.30;96.90
51739;DHT22;37815;52.692;6.226;2024-01-10T09:33:02;3.30;96.80
51739;DHT22;37815;52.692;6.226;2024-01-10T09:38:03;3.40;96.90
51739;DHT22;37815;52.692;6.226;2024-01-10T09:43:05;3.30;96.70
51739;DHT22;37815;52.692;6.226;2024-01-10T09:48:06;3.30;96.80
51739;DHT22;37815;52.692;6.226;2024-01-10T09:53:07;3.30;96.80
51739;DHT22;37815;52.692;6.226;2024-01-10T09:58:08;3.30;96.90
51739;DHT22;37815;52.692;6.226;2024-01-10T10:03:11;3.30;96.80
51739;DHT22;37815;52.692;6.226;2024-01-10T10:08:14;3.40;96.80
51739;DHT22;37815;52.692;6.226;2024-01-10T10:13:27;3.40;96.80
51739;DHT22;37815;52.692;6.226;2024-01-10T10:18:29;3.50;96.70
51739;DHT22;37815;52.692;6.226;2024-01-10T10:23:30;3.60;96.70
51739;DHT22;37815;52.692;6.226;2024-01-10T10:28:31;3.70;96.60
51739;DHT22;37815;52.692;6.226;2024-01-10T10:33:35;3.80;96.50
51739;DHT22;37815;52.692;6.226;2024-01-10T10:38:36;3.90;96.50
51739;DHT22;37815;52.692;6.226;2024-01-10T10:43:39;4.00;96.40
51739;DHT22;37815;52.692;6.226;2024-01-10T10:48:40;4.10;96.40
51739;DHT22;37815;52.692;6.226;2024-01-10T10:53:42;4.10;96.40
51739;DHT22;37815;52.692;6.226;2024-01-10T10:58:46;4.20;96.30
51739;DHT22;37815;52.692;6.226;2024-01-10T11:03:47;4.30;96.30
51739;DHT22;37815;52.692;6.226;2024-01-10T11:08:52;4.30;96.30
51739;DHT22;37815;52.692;6.226;2024-01-10T11:14:18;4.80;96.40
51739;DHT22;37815;52.692;6.226;2024-01-10T11:24:23;4.50;96.50
51739;DHT22;37815;52.692;6.226;2024-01-10T11:29:28;4.60;96.20
51739;DHT22;37815;52.692;6.226;2024-01-10T11:34:29;4.60;96.20
51739;DHT22;37815;52.692;6.226;2024-01-10T11:39:31;4.70;96.20
51739;DHT22;37815;52.692;6.226;2024-01-10T11:44:31;4.60;96.20
51739;DHT22;37815;52.692;6.226;2024-01-10T11:49:33;4.60;96.20
51739;DHT22;37815;52.692;6.226;2024-01-10T11:54:44;4.70;96.20
51739;DHT22;37815;52.692;6.226;2024-01-10T11:59:45;4.60;96.30
51739;DHT22;37815;52.692;6.226;2024-01-10T12:04:46;4.60;96.30
51739;DHT22;37815;52.692;6.226;2024-01-10T12:09:47;4.60;96.40
51739;DHT22;37815;52.692;6.226;2024-01-10T12:14:48;4.50;96.50
51739;DHT22;37815;52.692;6.226;2024-01-10T12:19:48;4.50;96.50
51739;DHT22;37815;52.692;6.226;2024-01-10T12:24:49;4.50;96.60
51739;DHT22;37815;52.692;6.226;2024-01-10T12:29:50;4.40;96.90
51739;DHT22;37815;52.692;6.226;2024-01-10T12:35:04;4.40;96.60
51739;DHT22;37815;52.692;6.226;2024-01-10T12:40:07;4.40;96.70
51739;DHT22;37815;52.692;6.226;2024-01-10T12:45:21;4.40;96.80
51739;DHT22;37815;52.692;6.226;2024-01-10T12:50:22;4.40;96.80
51739;DHT22;37815;52.692;6.226;2024-01-10T12:55:26;4.50;97.10
51739;DHT22;37815;52.692;6.226;2024-01-10T13:00:27;4.50;96.80
51739;DHT22;37815;52.692;6.226;2024-01-10T13:05:29;4.40;96.70
51739;DHT22;37815;52.692;6.226;2024-01-10T13:10:29;4.40;96.80
51739;DHT22;37815;52.692;6.226;2024-01-10T13:15:31;4.40;96.90
51739;DHT22;37815;52.692;6.226;2024-01-10T13:20:31;4.40;96.80
51739;DHT22;37815;52.692;6.226;2024-01-10T13:25:32;4.40;96.80
51739;DHT22;37815;52.692;6.226;2024-01-10T13:30:33;4.50;97.20
51739;DHT22;37815;52.692;6.226;2024-01-10T13:35:33;4.50;96.90
51739;DHT22;37815;52.692;6.226;2024-01-10T13:40:34;4.50;96.90
51739;DHT22;37815;52.692;6.226;2024-01-10T13:45:34;4.40;96.90
51739;DHT22;37815;52.692;6.226;2024-01-10T13:50:35;4.40;96.90
51739;DHT22;37815;52.692;6.226;2024-01-10T13:55:36;4.30;96.90
51739;DHT22;37815;52.692;6.226;2024-01-10T14:00:36;4.30;97.00
51739;DHT22;37815;52.692;6.226;2024-01-10T14:05:38;4.30;97.00
51739;DHT22;37815;52.692;6.226;2024-01-10T14:10:40;4.30;97.10
51739;DHT22;37815;52.692;6.226;2024-01-10T14:15:43;4.30;97.00
51739;DHT22;37815;52.692;6.226;2024-01-10T14:20:43;4.40;97.20
51739;DHT22;37815;52.692;6.226;2024-01-10T14:25:45;4.50;97.40
51739;DHT22;37815;52.692;6.226;2024-01-10T14:30:46;4.50;97.10
51739;DHT22;37815;52.692;6.226;2024-01-10T14:35:46;4.50;97.10
51739;DHT22;37815;52.692;6.226;2024-01-10T14:40:47;4.40;97.10
51739;DHT22;37815;52.692;6.226;2024-01-10T14:45:48;4.30;97.20
51739;DHT22;37815;52.692;6.226;2024-01-10T14:50:49;5.80;97.50
51739;DHT22;37815;52.692;6.226;2024-01-10T14:55:49;4.30;97.20
51739;DHT22;37815;52.692;6.226;2024-01-10T15:00:50;4.30;97.30
51739;DHT22;37815;52.692;6.226;2024-01-10T15:05:50;4.20;97.30
51739;DHT22;37815;52.692;6.226;2024-01-10T15:10:52;4.50;97.30
51739;DHT22;37815;52.692;6.226;2024-01-10T15:15:52;4.30;97.60
51739;DHT22;37815;52.692;6.226;2024-01-10T15:20:53;4.30;97.30
51739;DHT22;37815;52.692;6.226;2024-01-10T15:25:54;4.30;97.20
51739;DHT22;37815;52.692;6.226;2024-01-10T15:30:54;4.20;97.20
51739;DHT22;37815;52.692;6.226;2024-01-10T15:35:55;4.20;97.30
51739;DHT22;37815;52.692;6.226;2024-01-10T15:40:56;4.20;97.20
51739;DHT22;37815;52.692;6.226;2024-01-10T15:45:59;4.10;97.20
51739;DHT22;37815;52.692;6.226;2024-01-10T15:51:00;4.10;97.20
51739;DHT22;37815;52.692;6.226;2024-01-10T15:56:00;4.10;97.20
51739;DHT22;37815;52.692;6.226;2024-01-10T16:01:01;4.10;97.30
51739;DHT22;37815;52.692;6.226;2024-01-10T16:06:02;4.00;97.30
51739;DHT22;37815;52.692;6.226;2024-01-10T16:11:03;3.90;97.30
51739;DHT22;37815;52.692;6.226;2024-01-10T16:16:05;3.70;97.40
51739;DHT22;37815;52.692;6.226;2024-01-10T16:21:09;3.60;97.40
51739;DHT22;37815;52.692;6.226;2024-01-10T16:26:09;3.50;97.40
51739;DHT22;37815;52.692;6.226;2024-01-10T16:31:11;3.50;97.40
51739;DHT22;37815;52.692;6.226;2024-01-10T16:36:11;3.40;97.40
51739;DHT22;37815;52.692;6.226;2024-01-10T16:41:12;3.70;97.20
51739;DHT22;37815;52.692;6.226;2024-01-10T16:46:12;3.80;97.00
51739;DHT22;37815;52.692;6.226;2024-01-10T16:51:14;3.80;97.00
51739;DHT22;37815;52.692;6.226;2024-01-10T16:56:15;3.80;97.00
51739;DHT22;37815;52.692;6.226;2024-01-10T17:01:15;3.80;97.00
51739;DHT22;37815;52.692;6.226;2024-01-10T17:06:16;3.90;97.00
51739;DHT22;37815;52.692;6.226;2024-01-10T17:11:16;3.80;97.00
51739;DHT22;37815;52.692;6.226;2024-01-10T17:16:18;3.80;97.00
51739;DHT22;37815;52.692;6.226;2024-01-10T17:21:18;3.80;97.10
51739;DHT22;37815;52.692;6.226;2024-01-10T17:26:19;3.90;97.00
51739;DHT22;37815;52.692;6.226;2024-01-10T17:31:19;3.90;96.90
51739;DHT22;37815;52.692;6.226;2024-01-10T17:36:21;3.80;96.80
51739;DHT22;37815;52.692;6.226;2024-01-10T17:41:22;3.80;96.90
51739;DHT22;37815;52.692;6.226;2024-01-10T17:46:23;3.80;96.90
51739;DHT22;37815;52.692;6.226;2024-01-10T17:51:24;3.90;97.00
51739;DHT22;37815;52.692;6.226;2024-01-10T17:56:28;3.80;96.90
51739;DHT22;37815;52.692;6.226;2024-01-10T18:01:28;3.80;96.80
51739;DHT22;37815;52.692;6.226;2024-01-10T18:06:29;3.80;96.80
51739;DHT22;37815;52.692;6.226;2024-01-10T18:11:30;3.80;96.80
51739;DHT22;37815;52.692;6.226;2024-01-10T18:16:30;3.80;97.00
51739;DHT22;37815;52.692;6.226;2024-01-10T18:21:31;3.80;96.90
51739;DHT22;37815;52.692;6.226;2024-01-10T18:26:31;3.80;96.90
51739;DHT22;37815;52.692;6.226;2024-01-10T18:31:32;3.80;96.90
51739;DHT22;37815;52.692;6.226;2024-01-10T18:36:32;3.80;96.90
51739;DHT22;37815;52.692;6.226;2024-01-10T18:41:36;3.80;96.90
51739;DHT22;37815;52.692;6.226;2024-01-10T18:46:38;3.80;96.90
51739;DHT22;37815;52.692;6.226;2024-01-10T18:51:39;3.70;96.90
51739;DHT22;37815;52.692;6.226;2024-01-10T18:56:41;3.70;96.90
51739;DHT22;37815;52.692;6.226;2024-01-10T19:01:42;3.40;96.90
51739;DHT22;37815;52.692;6.226;2024-01-10T19:06:44;3.80;97.00
51739;DHT22;37815;52.692;6.226;2024-01-10T19:11:45;3.70;97.00
51739;DHT22;37815;52.692;6.226;2024-01-10T19:16:46;3.70;97.00
51739;DHT22;37815;52.692;6.226;2024-01-10T19:21:49;3.70;97.00
51739;DHT22;37815;52.692;6.226;2024-01-10T19:26:50;3.70;97.00
51739;DHT22;37815;52.692;6.226;2024-01-10T19:31:50;3.70;97.00
51739;DHT22;37815;52.692;6.226;2024-01-10T19:36:51;3.70;97.00
51739;DHT22;37815;52.692;6.226;2024-01-10T19:41:53;3.70;97.00
51739;DHT22;37815;52.692;6.226;2024-01-10T19:46:54;3.70;97.00
51739;DHT22;37815;52.692;6.226;2024-01-10T19:51:54;3.70;97.00
51739;DHT22;37815;52.692;6.226;2024-01-10T19:56:55;3.70;97.00
51739;DHT22;37815;52.692;6.226;2024-01-10T20:01:55;3.70;97.00
51739;DHT22;37815;52.692;6.226;2024-01-10T20:06:56;3.70;97.00
51739;DHT22;37815;52.692;6.226;2024-01-10T20:11:57;3.60;97.00
51739;DHT22;37815;52.692;6.226;2024-01-10T20:16:57;3.60;97.00
51739;DHT22;37815;52.692;6.226;2024-01-10T20:21:58;3.60;97.10
51739;DHT22;37815;52.692;6.226;2024-01-10T20:26:58;3.60;97.10
51739;DHT22;37815;52.692;6.226;2024-01-10T20:31:59;3.70;97.10
51739;DHT22;37815;52.692;6.226;2024-01-10T20:36:59;4.80;97.30
51739;DHT22;37815;52.692;6.226;2024-01-10T20:42:00;3.60;97.10
51739;DHT22;37815;52.692;6.226;2024-01-10T20:47:01;3.60;97.10
51739;DHT22;37815;52.692;6.226;2024-01-10T20:52:01;3.60;97.10
51739;DHT22;37815;52.692;6.226;2024-01-10T20:57:02;3.60;97.10
51739;DHT22;37815;52.692;6.226;2024-01-10T21:02:03;3.60;97.10
51739;DHT22;37815;52.692;6.226;2024-01-10T21:07:04;3.60;97.10
51739;DHT22;37815;52.692;6.226;2024-01-10T21:12:08;3.50;97.10
51739;DHT22;37815;52.692;6.226;2024-01-10T21:17:12;3.50;97.10
51739;DHT22;37815;52.692;6.226;2024-01-10T21:22:13;3.50;97.10
51739;DHT22;37815;52.692;6.226;2024-01-10T21:27:14;3.50;97.10
51739;DHT22;37815;52.692;6.226;2024-01-10T21:32:14;3.50;97.10
51739;DHT22;37815;52.692;6.226;2024-01-10T21:37:15;3.50;97.10
51739;DHT22;37815;52.692;6.226;2024-01-10T21:42:15;3.50;97.10
51739;DHT22;37815;52.692;6.226;2024-01-10T21:47:17;3.50;97.10
51739;DHT22;37815;52.692;6.226;2024-01-10T21:52:17;3.50;97.10
51739;DHT22;37815;52.692;6.226;2024-01-10T21:57:18;3.50;97.10
51739;DHT22;37815;52.692;6.226;2024-01-10T22:02:20;3.50;97.10
51739;DHT22;37815;52.692;6.226;2024-01-10T22:07:22;3.50;97.10
51739;DHT22;37815;52.692;6.226;2024-01-10T22:12:22;3.50;97.10
51739;DHT22;37815;52.692;6.226;2024-01-10T22:17:27;3.50;97.10
51739;DHT22;37815;52.692;6.226;2024-01-10T22:22:28;3.40;97.10
51739;DHT22;37815;52.692;6.226;2024-01-10T22:27:29;3.40;97.10
51739;DHT22;37815;52.692;6.226;2024-01-10T22:32:33;3.40;97.10
51739;DHT22;37815;52.692;6.226;2024-01-10T22:37:34;3.40;97.10
51739;DHT22;37815;52.692;6.226;2024-01-10T22:42:34;3.40;97.10
51739;DHT22;37815;52.692;6.226;2024-01-10T22:47:36;3.40;97.10
51739;DHT22;37815;52.692;6.226;2024-01-10T22:52:37;3.40;97.10
51739;DHT22;37815;52.692;6.226;2024-01-10T22:57:38;3.40;97.10
51739;DHT22;37815;52.692;6.226;2024-01-10T23:02:38;3.40;97.10
51739;DHT22;37815;52.692;6.226;2024-01-10T23:07:41;3.40;97.10
51739;DHT22;37815;52.692;6.226;2024-01-10T23:12:42;3.50;97.10
51739;DHT22;37815;52.692;6.226;2024-01-10T23:17:42;3.40;97.10
51739;DHT22;37815;52.692;6.226;2024-01-10T23:22:43;3.40;97.10
51739;DHT22;37815;52.692;6.226;2024-01-10T23:27:44;3.40;97.10
51739;DHT22;37815;52.692;6.226;2024-01-10T23:32:44;3.40;97.10
51739;DHT22;37815;52.692;6.226;2024-01-10T23:37:45;3.30;97.10
51739;DHT22;37815;52.692;6.226;2024-01-10T23:42:46;3.30;97.10
51739;DHT22;37815;52.692;6.226;2024-01-10T23:47:46;3.30;97.10
51739;DHT22;37815;52.692;6.226;2024-01-10T23:52:48;3.30;97.10
51739;DHT22;37815;52.692;6.226;2024-01-10T23:57:50;3.30;97.10
